Akra, North Dakota
Current Conditions -  °F | °C
As of 7:35 PM on Monday 22 Dec 2014 (Local Time) from K2C8 Reporting Station
Unknown Precip Unknown Precip  
Wind Chill: -3°   Ceiling: 200
Heat Index:   Visibility: 1.5mi
Dew Point:   Wind: 8mph
Humidity: 100%   Direction: 20°NNE
Pressure: 29.72"   Gusts: NA
Location:  48.8218°N, 97.697°W
Report Text: K2C8 230135Z AUTO 02007KT 1 1/2SM UP OVC002 01/01 A2972 RMK AO2
Loading
Personal Weather Stations






























Interactive Weather Map New forecast layout! Learn more

10-Day Weather Forecast

Advertisements
Track Severe Weather on mobile